< < Back
Terminal Aerodrome Forecast


Current Version              Previous Versions:   1  2  3  4  5  6  7  8  9  

Terminal Aerodrome Forecast

397
FTUS42 KTAE 181120
TAFTLH
TAF
KTLH 181120Z 1812/1912 00000KT 1/4SM FG BKN020 BKN250
      TEMPO 1812/1814 3SM BR SCT007 BKN020
     FM181400 22005KT P6SM OVC015
     FM182100 22010KT P6SM OVC050
     FM190000 20004KT P6SM -RA OVC050=



Latest METAR

816
SAUS80 KWBC 181300 RRB
MTRTLH
METAR KTLH 181253Z 34003KT 1SM BR BKN002 BKN015 BKN250 23/22 A2996 RMK
AO2 SFC VIS 3 SLP144 T02280217 $


USA.gov is the U.S. government's official web portal to all federal, state and local government web resources and services.